KBIX/BIX METAR and TAF weather

Enter ICAO airport designator
Station Type Date Time Source
KBIX METAR 2018/01/22 10:56 UTC NOAA

KBIX 221056Z AUTO 15009KT 10SM SCT100 18/16 A2997 RMK AO2 SLP152 T01790162


Station Type Date Time Source
KBIX Decoded METAR 2018/01/22 10:56 UTC NOAA

Keesler Air Force Base / Biloxi, MS, United States (KBIX) 30-25N 088-55W
Jan 22, 2018 - 05:56 AM EST / 2018.01.22 1056 UTC
Wind: from the SSE (150 degrees) at 10 MPH (9 KT):0
Visibility: 10 mile(s):0
Sky conditions: partly cloudy
Temperature: 64.2 F (17.9 C)
Dew Point: 61.2 F (16.2 C)
Relative Humidity: 89%
Pressure (altimeter): 29.97 in. Hg (1014 hPa)
ob: KBIX 221056Z AUTO 15009KT 10SM SCT100 18/16 A2997 RMK AO2 SLP152 T01790162
cycle: 11

Station Type Date Time Source
KBIX TAF 2018/01/22 10:11 UTC NOAA

TAF KBIX 221000Z 2210/2316 16012KT 9999 SCT020 510051 QNH2996INS
TEMPO 2210/2216 BKN015
BECMG 2215/2216 18015G25KT 9999 BKN015 510051 QNH2995INS
TEMPO 2217/2219 8000 -TSRA BKN006CB
BECMG 2218/2219 18012KT 8000 -SHRA OVC010 510051 QNH2994INS
BECMG 2220/2221 19009KT 9999 NSW OVC015 QNH2990INS
BECMG 2223/2224 24009KT 9999 SCT025 QNH2992INS
BECMG 2302/2303 27009KT 9999 SKC QNH2998INS
BECMG 2308/2309 32009KT 9999 SKC QNH3006INS TX20/2220Z TN11/2309Z


Example: see airport list